sensor_id;sensor_type;location;lat;lon;timestamp;P1;durP1;ratioP1;P2;durP2;ratioP2
76656;SDS011;65576;47.714;9.414;2023-01-09T00:00:13;7.82;;;3.33;;
76656;SDS011;65576;47.714;9.414;2023-01-09T00:02:40;3.33;;;2.58;;
76656;SDS011;65576;47.714;9.414;2023-01-09T00:05:06;7.28;;;3.60;;
76656;SDS011;65576;47.714;9.414;2023-01-09T00:07:32;5.85;;;4.05;;
76656;SDS011;65576;47.714;9.414;2023-01-09T00:09:57;7.30;;;3.75;;
76656;SDS011;65576;47.714;9.414;2023-01-09T00:12:23;8.68;;;6.35;;
76656;SDS011;65576;47.714;9.414;2023-01-09T00:14:48;7.78;;;4.55;;
76656;SDS011;65576;47.714;9.414;2023-01-09T00:17:13;4.70;;;3.72;;
76656;SDS011;65576;47.714;9.414;2023-01-09T00:19:39;3.88;;;3.30;;
76656;SDS011;65576;47.714;9.414;2023-01-09T00:22:04;5.03;;;3.80;;
76656;SDS011;65576;47.714;9.414;2023-01-09T00:24:30;4.95;;;2.85;;
76656;SDS011;65576;47.714;9.414;2023-01-09T00:26:56;5.35;;;4.05;;
76656;SDS011;65576;47.714;9.414;2023-01-09T00:29:21;5.00;;;3.53;;
76656;SDS011;65576;47.714;9.414;2023-01-09T00:31:46;5.90;;;4.30;;
76656;SDS011;65576;47.714;9.414;2023-01-09T00:34:12;8.32;;;4.60;;
76656;SDS011;65576;47.714;9.414;2023-01-09T00:36:37;7.32;;;4.68;;
76656;SDS011;65576;47.714;9.414;2023-01-09T00:39:03;6.43;;;3.95;;
76656;SDS011;65576;47.714;9.414;2023-01-09T00:41:29;7.30;;;4.45;;
76656;SDS011;65576;47.714;9.414;2023-01-09T00:44:00;8.05;;;4.43;;
76656;SDS011;65576;47.714;9.414;2023-01-09T00:46:29;4.05;;;3.65;;
76656;SDS011;65576;47.714;9.414;2023-01-09T00:48:55;6.88;;;5.05;;
76656;SDS011;65576;47.714;9.414;2023-01-09T00:51:21;8.38;;;4.25;;
76656;SDS011;65576;47.714;9.414;2023-01-09T00:53:47;4.88;;;3.30;;
76656;SDS011;65576;47.714;9.414;2023-01-09T00:56:14;10.27;;;4.28;;
76656;SDS011;65576;47.714;9.414;2023-01-09T00:58:40;3.95;;;3.08;;
76656;SDS011;65576;47.714;9.414;2023-01-09T01:01:06;5.82;;;3.97;;
76656;SDS011;65576;47.714;9.414;2023-01-09T01:03:31;7.72;;;4.25;;
76656;SDS011;65576;47.714;9.414;2023-01-09T01:05:57;7.18;;;5.22;;
76656;SDS011;65576;47.714;9.414;2023-01-09T01:08:41;6.93;;;3.70;;
76656;SDS011;65576;47.714;9.414;2023-01-09T01:11:07;6.28;;;4.03;;
76656;SDS011;65576;47.714;9.414;2023-01-09T01:13:34;5.47;;;3.92;;
76656;SDS011;65576;47.714;9.414;2023-01-09T01:16:02;6.65;;;4.32;;
76656;SDS011;65576;47.714;9.414;2023-01-09T01:18:28;9.45;;;5.45;;
76656;SDS011;65576;47.714;9.414;2023-01-09T01:20:53;9.38;;;4.93;;
76656;SDS011;65576;47.714;9.414;2023-01-09T01:23:19;5.53;;;4.25;;
76656;SDS011;65576;47.714;9.414;2023-01-09T01:25:44;7.68;;;5.07;;
76656;SDS011;65576;47.714;9.414;2023-01-09T01:28:09;7.88;;;5.55;;
76656;SDS011;65576;47.714;9.414;2023-01-09T01:30:38;5.40;;;4.07;;
76656;SDS011;65576;47.714;9.414;2023-01-09T01:33:04;8.02;;;5.18;;
76656;SDS011;65576;47.714;9.414;2023-01-09T01:35:30;8.48;;;5.15;;
76656;SDS011;65576;47.714;9.414;2023-01-09T01:37:55;10.20;;;5.22;;
76656;SDS011;65576;47.714;9.414;2023-01-09T01:40:20;7.13;;;5.53;;
76656;SDS011;65576;47.714;9.414;2023-01-09T01:42:47;10.30;;;5.53;;
76656;SDS011;65576;47.714;9.414;2023-01-09T01:53:12;8.23;;;5.55;;
76656;SDS011;65576;47.714;9.414;2023-01-09T01:55:46;9.07;;;6.00;;
76656;SDS011;65576;47.714;9.414;2023-01-09T01:58:14;6.47;;;4.35;;
76656;SDS011;65576;47.714;9.414;2023-01-09T02:00:41;11.95;;;4.90;;
76656;SDS011;65576;47.714;9.414;2023-01-09T02:03:08;7.10;;;4.88;;
76656;SDS011;65576;47.714;9.414;2023-01-09T02:05:34;7.28;;;5.00;;
76656;SDS011;65576;47.714;9.414;2023-01-09T02:08:00;11.85;;;5.40;;
76656;SDS011;65576;47.714;9.414;2023-01-09T02:10:26;6.18;;;5.10;;
76656;SDS011;65576;47.714;9.414;2023-01-09T02:12:51;8.25;;;5.50;;
76656;SDS011;65576;47.714;9.414;2023-01-09T02:15:17;8.43;;;4.88;;
76656;SDS011;65576;47.714;9.414;2023-01-09T02:28:59;6.38;;;4.07;;
76656;SDS011;65576;47.714;9.414;2023-01-09T02:31:31;6.70;;;4.22;;
76656;SDS011;65576;47.714;9.414;2023-01-09T02:34:19;2.70;;;2.50;;
76656;SDS011;65576;47.714;9.414;2023-01-09T02:39:34;1.08;;;0.98;;
76656;SDS011;65576;47.714;9.414;2023-01-09T02:42:08;0.47;;;0.47;;
76656;SDS011;65576;47.714;9.414;2023-01-09T02:44:37;0.85;;;0.65;;
76656;SDS011;65576;47.714;9.414;2023-01-09T02:49:40;0.57;;;0.57;;
76656;SDS011;65576;47.714;9.414;2023-01-09T03:03:53;0.40;;;0.30;;
76656;SDS011;65576;47.714;9.414;2023-01-09T03:06:22;0.10;;;0.10;;
76656;SDS011;65576;47.714;9.414;2023-01-09T03:08:55;0.10;;;0.10;;
76656;SDS011;65576;47.714;9.414;2023-01-09T03:11:24;0.10;;;0.10;;
76656;SDS011;65576;47.714;9.414;2023-01-09T03:13:52;0.10;;;0.10;;
76656;SDS011;65576;47.714;9.414;2023-01-09T03:16:20;0.10;;;0.10;;
76656;SDS011;65576;47.714;9.414;2023-01-09T03:18:48;0.10;;;0.10;;
76656;SDS011;65576;47.714;9.414;2023-01-09T03:21:14;0.10;;;0.10;;
76656;SDS011;65576;47.714;9.414;2023-01-09T03:23:51;0.10;;;0.10;;
76656;SDS011;65576;47.714;9.414;2023-01-09T03:26:19;1.35;;;0.32;;
76656;SDS011;65576;47.714;9.414;2023-01-09T03:28:44;0.50;;;0.28;;
76656;SDS011;65576;47.714;9.414;2023-01-09T03:31:10;0.13;;;0.13;;
76656;SDS011;65576;47.714;9.414;2023-01-09T03:33:36;0.13;;;0.13;;
76656;SDS011;65576;47.714;9.414;2023-01-09T03:36:01;0.10;;;0.10;;
76656;SDS011;65576;47.714;9.414;2023-01-09T03:38:27;0.25;;;0.25;;
76656;SDS011;65576;47.714;9.414;2023-01-09T03:40:52;0.28;;;0.28;;
76656;SDS011;65576;47.714;9.414;2023-01-09T03:43:17;0.10;;;0.10;;
76656;SDS011;65576;47.714;9.414;2023-01-09T03:45:43;0.20;;;0.20;;
76656;SDS011;65576;47.714;9.414;2023-01-09T03:48:08;0.10;;;0.10;;
76656;SDS011;65576;47.714;9.414;2023-01-09T03:50:33;0.10;;;0.10;;
76656;SDS011;65576;47.714;9.414;2023-01-09T03:52:59;0.10;;;0.10;;
76656;SDS011;65576;47.714;9.414;2023-01-09T03:55:24;0.10;;;0.10;;
76656;SDS011;65576;47.714;9.414;2023-01-09T03:57:50;0.10;;;0.10;;
76656;SDS011;65576;47.714;9.414;2023-01-09T04:00:16;3.00;;;0.40;;
76656;SDS011;65576;47.714;9.414;2023-01-09T04:02:43;0.10;;;0.10;;
76656;SDS011;65576;47.714;9.414;2023-01-09T04:05:08;0.10;;;0.10;;
76656;SDS011;65576;47.714;9.414;2023-01-09T04:07:33;0.30;;;0.30;;
76656;SDS011;65576;47.714;9.414;2023-01-09T04:09:59;0.10;;;0.10;;
76656;SDS011;65576;47.714;9.414;2023-01-09T04:12:24;0.32;;;0.28;;
76656;SDS011;65576;47.714;9.414;2023-01-09T04:14:49;0.20;;;0.20;;
76656;SDS011;65576;47.714;9.414;2023-01-09T04:17:15;0.85;;;0.20;;
76656;SDS011;65576;47.714;9.414;2023-01-09T04:19:40;0.10;;;0.10;;
76656;SDS011;65576;47.714;9.414;2023-01-09T04:22:06;0.10;;;0.10;;
76656;SDS011;65576;47.714;9.414;2023-01-09T04:24:31;0.40;;;0.20;;
76656;SDS011;65576;47.714;9.414;2023-01-09T04:26:56;0.10;;;0.10;;
76656;SDS011;65576;47.714;9.414;2023-01-09T04:29:22;0.10;;;0.10;;
76656;SDS011;65576;47.714;9.414;2023-01-09T04:31:48;0.10;;;0.10;;
76656;SDS011;65576;47.714;9.414;2023-01-09T04:34:13;0.10;;;0.10;;
76656;SDS011;65576;47.714;9.414;2023-01-09T04:36:38;0.28;;;0.28;;
76656;SDS011;65576;47.714;9.414;2023-01-09T04:39:04;0.10;;;0.10;;
76656;SDS011;65576;47.714;9.414;2023-01-09T04:41:29;0.20;;;0.20;;
76656;SDS011;65576;47.714;9.414;2023-01-09T04:44:13;0.10;;;0.10;;
76656;SDS011;65576;47.714;9.414;2023-01-09T04:46:42;0.20;;;0.20;;
76656;SDS011;65576;47.714;9.414;2023-01-09T04:49:08;0.10;;;0.10;;
76656;SDS011;65576;47.714;9.414;2023-01-09T04:51:33;0.20;;;0.20;;
76656;SDS011;65576;47.714;9.414;2023-01-09T04:53:58;0.10;;;0.10;;
76656;SDS011;65576;47.714;9.414;2023-01-09T04:56:24;0.30;;;0.30;;
76656;SDS011;65576;47.714;9.414;2023-01-09T04:58:49;0.10;;;0.10;;
76656;SDS011;65576;47.714;9.414;2023-01-09T05:01:14;0.10;;;0.10;;
76656;SDS011;65576;47.714;9.414;2023-01-09T05:03:40;0.20;;;0.20;;
76656;SDS011;65576;47.714;9.414;2023-01-09T05:06:05;0.30;;;0.30;;
76656;SDS011;65576;47.714;9.414;2023-01-09T05:08:30;0.10;;;0.10;;
76656;SDS011;65576;47.714;9.414;2023-01-09T05:10:56;0.00;;;0.00;;
76656;SDS011;65576;47.714;9.414;2023-01-09T05:13:21;0.10;;;0.10;;
76656;SDS011;65576;47.714;9.414;2023-01-09T05:15:46;0.10;;;0.10;;
76656;SDS011;65576;47.714;9.414;2023-01-09T05:18:12;0.10;;;0.10;;
76656;SDS011;65576;47.714;9.414;2023-01-09T05:20:37;0.20;;;0.20;;
76656;SDS011;65576;47.714;9.414;2023-01-09T05:23:02;0.10;;;0.10;;
76656;SDS011;65576;47.714;9.414;2023-01-09T05:25:28;0.10;;;0.10;;
76656;SDS011;65576;47.714;9.414;2023-01-09T05:27:53;0.20;;;0.20;;
76656;SDS011;65576;47.714;9.414;2023-01-09T05:30:18;0.20;;;0.20;;
76656;SDS011;65576;47.714;9.414;2023-01-09T05:32:44;0.10;;;0.10;;
76656;SDS011;65576;47.714;9.414;2023-01-09T05:35:09;0.10;;;0.10;;
76656;SDS011;65576;47.714;9.414;2023-01-09T05:37:34;0.10;;;0.10;;
76656;SDS011;65576;47.714;9.414;2023-01-09T05:40:00;0.10;;;0.10;;
76656;SDS011;65576;47.714;9.414;2023-01-09T05:42:25;0.10;;;0.10;;
76656;SDS011;65576;47.714;9.414;2023-01-09T05:44:50;0.10;;;0.10;;
76656;SDS011;65576;47.714;9.414;2023-01-09T05:47:16;0.10;;;0.10;;
76656;SDS011;65576;47.714;9.414;2023-01-09T05:49:41;0.10;;;0.10;;
76656;SDS011;65576;47.714;9.414;2023-01-09T05:52:06;0.10;;;0.10;;
76656;SDS011;65576;47.714;9.414;2023-01-09T05:54:32;0.10;;;0.10;;
76656;SDS011;65576;47.714;9.414;2023-01-09T05:56:57;0.10;;;0.10;;
76656;SDS011;65576;47.714;9.414;2023-01-09T05:59:23;0.10;;;0.10;;
76656;SDS011;65576;47.714;9.414;2023-01-09T06:01:48;0.10;;;0.10;;
76656;SDS011;65576;47.714;9.414;2023-01-09T06:04:13;0.25;;;0.20;;
76656;SDS011;65576;47.714;9.414;2023-01-09T06:06:39;0.10;;;0.10;;
76656;SDS011;65576;47.714;9.414;2023-01-09T06:09:05;0.10;;;0.10;;
76656;SDS011;65576;47.714;9.414;2023-01-09T06:11:30;0.10;;;0.10;;
76656;SDS011;65576;47.714;9.414;2023-01-09T06:13:58;0.08;;;0.08;;
76656;SDS011;65576;47.714;9.414;2023-01-09T06:16:23;0.30;;;0.30;;
76656;SDS011;65576;47.714;9.414;2023-01-09T06:18:48;0.20;;;0.20;;
76656;SDS011;65576;47.714;9.414;2023-01-09T06:21:14;0.10;;;0.10;;
76656;SDS011;65576;47.714;9.414;2023-01-09T06:23:39;0.10;;;0.10;;
76656;SDS011;65576;47.714;9.414;2023-01-09T06:26:05;0.10;;;0.10;;
76656;SDS011;65576;47.714;9.414;2023-01-09T06:28:30;0.28;;;0.28;;
76656;SDS011;65576;47.714;9.414;2023-01-09T06:30:55;0.10;;;0.10;;
76656;SDS011;65576;47.714;9.414;2023-01-09T06:33:21;0.10;;;0.10;;
76656;SDS011;65576;47.714;9.414;2023-01-09T06:35:46;0.20;;;0.20;;
76656;SDS011;65576;47.714;9.414;2023-01-09T06:38:11;0.13;;;0.13;;
76656;SDS011;65576;47.714;9.414;2023-01-09T06:40:37;0.20;;;0.20;;
76656;SDS011;65576;47.714;9.414;2023-01-09T06:43:02;0.20;;;0.20;;
76656;SDS011;65576;47.714;9.414;2023-01-09T06:45:27;0.40;;;0.40;;
76656;SDS011;65576;47.714;9.414;2023-01-09T06:47:52;0.32;;;0.32;;
76656;SDS011;65576;47.714;9.414;2023-01-09T06:50:18;0.20;;;0.20;;
76656;SDS011;65576;47.714;9.414;2023-01-09T06:52:43;0.10;;;0.10;;
76656;SDS011;65576;47.714;9.414;2023-01-09T06:55:08;0.10;;;0.10;;
76656;SDS011;65576;47.714;9.414;2023-01-09T06:57:34;0.20;;;0.20;;
76656;SDS011;65576;47.714;9.414;2023-01-09T06:59:59;0.30;;;0.30;;
76656;SDS011;65576;47.714;9.414;2023-01-09T07:02:24;0.10;;;0.10;;
76656;SDS011;65576;47.714;9.414;2023-01-09T07:04:50;0.20;;;0.20;;
76656;SDS011;65576;47.714;9.414;2023-01-09T07:07:15;0.35;;;0.30;;
76656;SDS011;65576;47.714;9.414;2023-01-09T07:09:40;0.10;;;0.10;;
76656;SDS011;65576;47.714;9.414;2023-01-09T07:12:06;0.22;;;0.22;;
76656;SDS011;65576;47.714;9.414;2023-01-09T07:14:31;0.22;;;0.22;;
76656;SDS011;65576;47.714;9.414;2023-01-09T07:16:56;0.10;;;0.10;;
76656;SDS011;65576;47.714;9.414;2023-01-09T07:19:22;0.13;;;0.13;;
76656;SDS011;65576;47.714;9.414;2023-01-09T07:21:48;0.10;;;0.10;;
76656;SDS011;65576;47.714;9.414;2023-01-09T07:24:13;0.15;;;0.15;;
76656;SDS011;65576;47.714;9.414;2023-01-09T07:26:38;1.33;;;0.30;;
76656;SDS011;65576;47.714;9.414;2023-01-09T07:29:04;0.88;;;0.25;;
76656;SDS011;65576;47.714;9.414;2023-01-09T07:31:29;0.10;;;0.10;;
76656;SDS011;65576;47.714;9.414;2023-01-09T07:33:54;0.32;;;0.30;;
76656;SDS011;65576;47.714;9.414;2023-01-09T07:36:20;0.47;;;0.20;;
76656;SDS011;65576;47.714;9.414;2023-01-09T07:38:45;0.30;;;0.30;;
76656;SDS011;65576;47.714;9.414;2023-01-09T07:41:10;4.13;;;0.65;;
76656;SDS011;65576;47.714;9.414;2023-01-09T07:43:36;0.20;;;0.20;;
76656;SDS011;65576;47.714;9.414;2023-01-09T07:46:02;0.30;;;0.30;;
76656;SDS011;65576;47.714;9.414;2023-01-09T07:48:28;0.20;;;0.20;;
76656;SDS011;65576;47.714;9.414;2023-01-09T07:50:53;0.82;;;0.38;;
76656;SDS011;65576;47.714;9.414;2023-01-09T07:53:18;0.20;;;0.20;;
76656;SDS011;65576;47.714;9.414;2023-01-09T07:55:44;0.10;;;0.10;;
76656;SDS011;65576;47.714;9.414;2023-01-09T07:58:09;0.28;;;0.28;;
76656;SDS011;65576;47.714;9.414;2023-01-09T08:00:34;0.45;;;0.15;;
76656;SDS011;65576;47.714;9.414;2023-01-09T08:03:00;0.20;;;0.20;;
76656;SDS011;65576;47.714;9.414;2023-01-09T08:05:25;0.28;;;0.28;;
76656;SDS011;65576;47.714;9.414;2023-01-09T08:07:50;0.60;;;0.43;;
76656;SDS011;65576;47.714;9.414;2023-01-09T08:10:16;0.63;;;0.63;;
76656;SDS011;65576;47.714;9.414;2023-01-09T08:12:43;0.25;;;0.25;;
76656;SDS011;65576;47.714;9.414;2023-01-09T08:15:10;0.05;;;0.05;;
76656;SDS011;65576;47.714;9.414;2023-01-09T08:17:35;0.10;;;0.10;;
76656;SDS011;65576;47.714;9.414;2023-01-09T08:20:00;0.20;;;0.20;;
76656;SDS011;65576;47.714;9.414;2023-01-09T08:22:26;0.10;;;0.10;;
76656;SDS011;65576;47.714;9.414;2023-01-09T08:24:51;6.53;;;1.70;;
76656;SDS011;65576;47.714;9.414;2023-01-09T08:27:16;1.30;;;0.82;;
76656;SDS011;65576;47.714;9.414;2023-01-09T08:29:42;0.15;;;0.15;;
76656;SDS011;65576;47.714;9.414;2023-01-09T08:32:07;0.80;;;0.80;;
76656;SDS011;65576;47.714;9.414;2023-01-09T08:34:33;0.20;;;0.20;;
76656;SDS011;65576;47.714;9.414;2023-01-09T08:36:59;0.55;;;0.43;;
76656;SDS011;65576;47.714;9.414;2023-01-09T08:39:24;0.20;;;0.20;;
76656;SDS011;65576;47.714;9.414;2023-01-09T08:41:50;0.50;;;0.40;;
76656;SDS011;65576;47.714;9.414;2023-01-09T08:44:33;0.17;;;0.17;;
76656;SDS011;65576;47.714;9.414;2023-01-09T08:47:18;0.08;;;0.08;;
76656;SDS011;65576;47.714;9.414;2023-01-09T08:49:45;0.10;;;0.10;;
76656;SDS011;65576;47.714;9.414;2023-01-09T08:52:11;0.38;;;0.38;;
76656;SDS011;65576;47.714;9.414;2023-01-09T08:54:37;0.40;;;0.40;;
76656;SDS011;65576;47.714;9.414;2023-01-09T08:57:03;8.77;;;0.60;;
76656;SDS011;65576;47.714;9.414;2023-01-09T08:59:29;0.73;;;0.70;;
76656;SDS011;65576;47.714;9.414;2023-01-09T09:01:54;1.73;;;1.63;;
76656;SDS011;65576;47.714;9.414;2023-01-09T09:04:20;1.45;;;1.08;;
76656;SDS011;65576;47.714;9.414;2023-01-09T09:06:45;5.72;;;0.60;;
76656;SDS011;65576;47.714;9.414;2023-01-09T09:09:10;0.38;;;0.38;;
76656;SDS011;65576;47.714;9.414;2023-01-09T09:11:36;0.77;;;0.77;;
76656;SDS011;65576;47.714;9.414;2023-01-09T09:14:01;0.28;;;0.28;;
76656;SDS011;65576;47.714;9.414;2023-01-09T09:16:49;0.38;;;0.38;;
76656;SDS011;65576;47.714;9.414;2023-01-09T09:19:15;0.10;;;0.10;;
76656;SDS011;65576;47.714;9.414;2023-01-09T09:21:40;0.10;;;0.10;;
76656;SDS011;65576;47.714;9.414;2023-01-09T09:24:05;0.30;;;0.30;;
76656;SDS011;65576;47.714;9.414;2023-01-09T09:26:31;0.20;;;0.20;;
76656;SDS011;65576;47.714;9.414;2023-01-09T09:28:56;0.20;;;0.20;;
76656;SDS011;65576;47.714;9.414;2023-01-09T09:31:22;0.38;;;0.35;;
76656;SDS011;65576;47.714;9.414;2023-01-09T09:33:48;0.65;;;0.55;;
76656;SDS011;65576;47.714;9.414;2023-01-09T09:36:13;0.20;;;0.20;;
76656;SDS011;65576;47.714;9.414;2023-01-09T09:38:39;0.30;;;0.30;;
76656;SDS011;65576;47.714;9.414;2023-01-09T09:44:17;0.10;;;0.10;;
76656;SDS011;65576;47.714;9.414;2023-01-09T09:50:22;0.38;;;0.17;;
76656;SDS011;65576;47.714;9.414;2023-01-09T09:53:42;0.22;;;0.22;;
76656;SDS011;65576;47.714;9.414;2023-01-09T09:56:00;0.20;;;0.20;;
76656;SDS011;65576;47.714;9.414;2023-01-09T09:58:30;0.65;;;0.10;;
76656;SDS011;65576;47.714;9.414;2023-01-09T10:00:59;0.30;;;0.30;;
76656;SDS011;65576;47.714;9.414;2023-01-09T10:03:33;0.30;;;0.30;;
76656;SDS011;65576;47.714;9.414;2023-01-09T10:06:16;0.20;;;0.10;;
76656;SDS011;65576;47.714;9.414;2023-01-09T10:11:29;0.10;;;0.10;;
76656;SDS011;65576;47.714;9.414;2023-01-09T10:13:58;1.02;;;0.30;;
76656;SDS011;65576;47.714;9.414;2023-01-09T10:16:43;1.63;;;0.63;;
76656;SDS011;65576;47.714;9.414;2023-01-09T10:22:11;0.28;;;0.28;;
76656;SDS011;65576;47.714;9.414;2023-01-09T10:27:21;0.10;;;0.10;;
76656;SDS011;65576;47.714;9.414;2023-01-09T10:32:46;0.20;;;0.20;;
76656;SDS011;65576;47.714;9.414;2023-01-09T10:38:03;0.10;;;0.10;;
76656;SDS011;65576;47.714;9.414;2023-01-09T10:40:34;1.48;;;0.30;;
76656;SDS011;65576;47.714;9.414;2023-01-09T10:45:31;0.10;;;0.10;;
76656;SDS011;65576;47.714;9.414;2023-01-09T10:50:57;0.10;;;0.10;;
76656;SDS011;65576;47.714;9.414;2023-01-09T10:53:27;0.35;;;0.32;;
76656;SDS011;65576;47.714;9.414;2023-01-09T10:58:20;0.38;;;0.20;;
76656;SDS011;65576;47.714;9.414;2023-01-09T11:00:46;0.20;;;0.20;;
76656;SDS011;65576;47.714;9.414;2023-01-09T11:03:20;1.38;;;0.47;;
76656;SDS011;65576;47.714;9.414;2023-01-09T11:05:50;0.10;;;0.10;;
76656;SDS011;65576;47.714;9.414;2023-01-09T11:08:20;0.20;;;0.20;;
76656;SDS011;65576;47.714;9.414;2023-01-09T11:10:49;6.43;;;0.98;;
76656;SDS011;65576;47.714;9.414;2023-01-09T11:13:18;0.10;;;0.10;;
76656;SDS011;65576;47.714;9.414;2023-01-09T11:15:45;0.85;;;0.40;;
76656;SDS011;65576;47.714;9.414;2023-01-09T11:18:22;0.10;;;0.10;;
76656;SDS011;65576;47.714;9.414;2023-01-09T11:20:49;0.13;;;0.13;;
76656;SDS011;65576;47.714;9.414;2023-01-09T11:23:48;0.10;;;0.10;;
76656;SDS011;65576;47.714;9.414;2023-01-09T11:26:08;3.50;;;0.30;;
76656;SDS011;65576;47.714;9.414;2023-01-09T11:28:48;0.25;;;0.25;;
76656;SDS011;65576;47.714;9.414;2023-01-09T11:31:54;0.10;;;0.10;;
76656;SDS011;65576;47.714;9.414;2023-01-09T11:34:21;0.10;;;0.10;;
76656;SDS011;65576;47.714;9.414;2023-01-09T11:36:49;0.70;;;0.70;;
76656;SDS011;65576;47.714;9.414;2023-01-09T11:39:23;0.03;;;0.03;;
76656;SDS011;65576;47.714;9.414;2023-01-09T11:41:54;0.68;;;0.50;;
76656;SDS011;65576;47.714;9.414;2023-01-09T11:44:21;0.10;;;0.10;;
76656;SDS011;65576;47.714;9.414;2023-01-09T11:46:46;0.85;;;0.43;;
76656;SDS011;65576;47.714;9.414;2023-01-09T11:51:37;0.15;;;0.15;;
76656;SDS011;65576;47.714;9.414;2023-01-09T11:56:36;5.15;;;0.98;;
76656;SDS011;65576;47.714;9.414;2023-01-09T11:59:06;2.28;;;0.20;;
76656;SDS011;65576;47.714;9.414;2023-01-09T12:01:55;0.47;;;0.47;;
76656;SDS011;65576;47.714;9.414;2023-01-09T12:07:21;0.00;;;0.00;;
76656;SDS011;65576;47.714;9.414;2023-01-09T12:10:02;0.80;;;0.17;;
76656;SDS011;65576;47.714;9.414;2023-01-09T12:15:37;0.20;;;0.20;;
76656;SDS011;65576;47.714;9.414;2023-01-09T12:18:09;1.70;;;0.30;;
76656;SDS011;65576;47.714;9.414;2023-01-09T12:26:05;0.10;;;0.10;;
76656;SDS011;65576;47.714;9.414;2023-01-09T12:28:46;0.40;;;0.40;;
76656;SDS011;65576;47.714;9.414;2023-01-09T12:31:35;0.00;;;0.00;;
76656;SDS011;65576;47.714;9.414;2023-01-09T12:36:50;0.13;;;0.13;;
76656;SDS011;65576;47.714;9.414;2023-01-09T12:42:12;0.10;;;0.10;;
76656;SDS011;65576;47.714;9.414;2023-01-09T12:47:40;0.22;;;0.22;;
76656;SDS011;65576;47.714;9.414;2023-01-09T12:58:42;0.30;;;0.30;;
76656;SDS011;65576;47.714;9.414;2023-01-09T13:01:12;0.30;;;0.30;;
76656;SDS011;65576;47.714;9.414;2023-01-09T13:06:18;0.50;;;0.50;;
76656;SDS011;65576;47.714;9.414;2023-01-09T13:08:50;0.10;;;0.10;;
76656;SDS011;65576;47.714;9.414;2023-01-09T13:14:10;0.20;;;0.20;;
76656;SDS011;65576;47.714;9.414;2023-01-09T13:16:45;0.15;;;0.15;;
76656;SDS011;65576;47.714;9.414;2023-01-09T13:19:26;0.20;;;0.20;;
76656;SDS011;65576;47.714;9.414;2023-01-09T13:21:53;0.20;;;0.20;;
76656;SDS011;65576;47.714;9.414;2023-01-09T13:24:30;0.40;;;0.40;;
76656;SDS011;65576;47.714;9.414;2023-01-09T13:27:10;0.22;;;0.22;;
76656;SDS011;65576;47.714;9.414;2023-01-09T13:29:39;0.20;;;0.20;;
76656;SDS011;65576;47.714;9.414;2023-01-09T13:32:19;0.17;;;0.17;;
76656;SDS011;65576;47.714;9.414;2023-01-09T13:34:53;0.08;;;0.08;;
76656;SDS011;65576;47.714;9.414;2023-01-09T13:37:34;0.20;;;0.20;;
76656;SDS011;65576;47.714;9.414;2023-01-09T13:40:02;0.65;;;0.50;;
76656;SDS011;65576;47.714;9.414;2023-01-09T13:42:29;0.20;;;0.20;;
76656;SDS011;65576;47.714;9.414;2023-01-09T13:47:44;1.65;;;0.30;;
76656;SDS011;65576;47.714;9.414;2023-01-09T13:52:41;0.28;;;0.28;;
76656;SDS011;65576;47.714;9.414;2023-01-09T13:57:36;0.25;;;0.25;;
76656;SDS011;65576;47.714;9.414;2023-01-09T14:05:11;0.20;;;0.20;;
76656;SDS011;65576;47.714;9.414;2023-01-09T14:07:43;0.40;;;0.40;;
76656;SDS011;65576;47.714;9.414;2023-01-09T14:10:33;0.05;;;0.05;;
76656;SDS011;65576;47.714;9.414;2023-01-09T14:12:59;0.13;;;0.13;;
76656;SDS011;65576;47.714;9.414;2023-01-09T14:15:32;0.55;;;0.30;;
76656;SDS011;65576;47.714;9.414;2023-01-09T14:18:15;0.17;;;0.17;;
76656;SDS011;65576;47.714;9.414;2023-01-09T14:20:46;0.10;;;0.10;;
76656;SDS011;65576;47.714;9.414;2023-01-09T14:23:22;0.30;;;0.30;;
76656;SDS011;65576;47.714;9.414;2023-01-09T14:25:49;0.10;;;0.10;;
76656;SDS011;65576;47.714;9.414;2023-01-09T14:28:19;0.00;;;0.00;;
76656;SDS011;65576;47.714;9.414;2023-01-09T14:35:47;0.30;;;0.30;;
76656;SDS011;65576;47.714;9.414;2023-01-09T14:38:46;0.57;;;0.40;;
76656;SDS011;65576;47.714;9.414;2023-01-09T14:47:23;0.43;;;0.43;;
76656;SDS011;65576;47.714;9.414;2023-01-09T14:49:56;0.47;;;0.47;;
76656;SDS011;65576;47.714;9.414;2023-01-09T14:52:28;0.10;;;0.10;;
76656;SDS011;65576;47.714;9.414;2023-01-09T14:57:26;0.20;;;0.20;;
76656;SDS011;65576;47.714;9.414;2023-01-09T14:59:56;0.43;;;0.30;;
76656;SDS011;65576;47.714;9.414;2023-01-09T15:02:26;0.13;;;0.13;;
76656;SDS011;65576;47.714;9.414;2023-01-09T15:04:54;1.40;;;0.40;;
76656;SDS011;65576;47.714;9.414;2023-01-09T15:07:21;0.47;;;0.43;;
76656;SDS011;65576;47.714;9.414;2023-01-09T15:09:47;0.17;;;0.17;;
76656;SDS011;65576;47.714;9.414;2023-01-09T15:12:17;0.10;;;0.10;;
76656;SDS011;65576;47.714;9.414;2023-01-09T15:14:45;1.48;;;0.43;;
76656;SDS011;65576;47.714;9.414;2023-01-09T15:17:20;0.30;;;0.30;;
76656;SDS011;65576;47.714;9.414;2023-01-09T15:19:48;0.10;;;0.10;;
76656;SDS011;65576;47.714;9.414;2023-01-09T15:22:20;0.20;;;0.20;;
76656;SDS011;65576;47.714;9.414;2023-01-09T15:24:53;2.97;;;0.32;;
76656;SDS011;65576;47.714;9.414;2023-01-09T15:27:18;0.68;;;0.60;;
76656;SDS011;65576;47.714;9.414;2023-01-09T15:29:46;0.35;;;0.35;;
76656;SDS011;65576;47.714;9.414;2023-01-09T15:32:15;0.43;;;0.43;;
76656;SDS011;65576;47.714;9.414;2023-01-09T15:34:44;0.55;;;0.52;;
76656;SDS011;65576;47.714;9.414;2023-01-09T15:37:31;0.28;;;0.28;;
76656;SDS011;65576;47.714;9.414;2023-01-09T15:39:58;4.20;;;0.70;;
76656;SDS011;65576;47.714;9.414;2023-01-09T15:42:24;0.30;;;0.30;;
76656;SDS011;65576;47.714;9.414;2023-01-09T15:45:30;0.63;;;0.63;;
76656;SDS011;65576;47.714;9.414;2023-01-09T15:48:14;0.20;;;0.20;;
76656;SDS011;65576;47.714;9.414;2023-01-09T15:51:30;0.68;;;0.40;;
76656;SDS011;65576;47.714;9.414;2023-01-09T15:53:48;0.57;;;0.57;;
76656;SDS011;65576;47.714;9.414;2023-01-09T15:56:25;0.20;;;0.20;;
76656;SDS011;65576;47.714;9.414;2023-01-09T15:58:54;0.38;;;0.38;;
76656;SDS011;65576;47.714;9.414;2023-01-09T16:01:31;1.08;;;0.75;;
76656;SDS011;65576;47.714;9.414;2023-01-09T16:04:09;2.58;;;0.88;;
76656;SDS011;65576;47.714;9.414;2023-01-09T16:06:40;2.30;;;0.67;;
76656;SDS011;65576;47.714;9.414;2023-01-09T16:09:26;2.63;;;1.05;;
76656;SDS011;65576;47.714;9.414;2023-01-09T16:11:52;4.57;;;0.90;;
76656;SDS011;65576;47.714;9.414;2023-01-09T16:14:24;0.35;;;0.35;;
76656;SDS011;65576;47.714;9.414;2023-01-09T16:16:57;0.38;;;0.38;;
76656;SDS011;65576;47.714;9.414;2023-01-09T16:21:55;0.38;;;0.38;;
76656;SDS011;65576;47.714;9.414;2023-01-09T16:24:26;0.13;;;0.13;;
76656;SDS011;65576;47.714;9.414;2023-01-09T16:27:16;0.22;;;0.22;;
76656;SDS011;65576;47.714;9.414;2023-01-09T16:29:46;0.50;;;0.50;;
76656;SDS011;65576;47.714;9.414;2023-01-09T16:32:17;0.60;;;0.55;;
76656;SDS011;65576;47.714;9.414;2023-01-09T16:34:45;3.10;;;1.17;;
76656;SDS011;65576;47.714;9.414;2023-01-09T16:37:17;4.78;;;1.13;;
76656;SDS011;65576;47.714;9.414;2023-01-09T16:39:45;0.52;;;0.50;;
76656;SDS011;65576;47.714;9.414;2023-01-09T16:42:49;3.08;;;0.63;;
76656;SDS011;65576;47.714;9.414;2023-01-09T16:45:25;0.43;;;0.43;;
76656;SDS011;65576;47.714;9.414;2023-01-09T16:47:51;0.20;;;0.20;;
76656;SDS011;65576;47.714;9.414;2023-01-09T16:50:17;0.20;;;0.20;;
76656;SDS011;65576;47.714;9.414;2023-01-09T16:52:42;0.30;;;0.30;;
76656;SDS011;65576;47.714;9.414;2023-01-09T16:55:08;0.57;;;0.57;;
76656;SDS011;65576;47.714;9.414;2023-01-09T16:57:33;0.22;;;0.22;;
76656;SDS011;65576;47.714;9.414;2023-01-09T16:59:59;0.50;;;0.50;;
76656;SDS011;65576;47.714;9.414;2023-01-09T17:02:25;1.25;;;0.63;;
76656;SDS011;65576;47.714;9.414;2023-01-09T17:04:50;0.55;;;0.55;;
76656;SDS011;65576;47.714;9.414;2023-01-09T17:07:16;0.55;;;0.40;;
76656;SDS011;65576;47.714;9.414;2023-01-09T17:09:43;0.55;;;0.30;;